CMA CGM Arkansas — 9HA3973 — position and weather

sailwx.info

Track history (hours):
 
Tides and Currents Weather Stations Pressure Air Temp Water Temp Dewpoint Dewpoint Depression Visibility Wind Speed Wind Dir Waves Ship Positions

CMA CGM Arkansas

Last reported at 2018-Feb-21 03:25 UTC. Time now 2018-Feb-21 03:48 UTC.
Position N 44°06' E 028°40'.

Length 300 m; draft 11.2 m.

Type: Ship (hazmat cat A). MMSI: 256644000.

Date/timePositionNaut miles runAvg speedWind from/ knotsBaromVisibWave heightAir tempDewpointWater temp
2018-Feb-21 03:25N 44°06' E 028°40'0 0.0
2018-Feb-21 02:58N 44°06' E 028°40'0 0.0
2018-Feb-21 02:29N 44°06' E 028°40'0 0.0
2018-Feb-21 01:59N 44°06' E 028°40'0 0.0
2018-Feb-21 01:28N 44°06' E 028°40'0 0.0
2018-Feb-21 00:58N 44°06' E 028°40'0 0.0
2018-Feb-21 00:28N 44°06' E 028°40'0 0.0
2018-Feb-20 23:59N 44°06' E 028°40'0 0.0
2018-Feb-20 23:29N 44°06' E 028°40'0 0.0
2018-Feb-20 22:58N 44°06' E 028°40'0 0.0
2018-Feb-20 22:28N 44°06' E 028°40'0 0.0
2018-Feb-20 21:59N 44°06' E 028°40'0 0.0
2018-Feb-20 21:29N 44°06' E 028°40'0 0.0
2018-Feb-20 20:59N 44°06' E 028°40'0 0.0
2018-Feb-20 20:28N 44°06' E 028°40'0 0.0
2018-Feb-20 19:59N 44°06' E 028°40'0 0.0
2018-Feb-20 19:29N 44°06' E 028°40'0 0.0
2018-Feb-20 18:59N 44°06' E 028°40'0 0.0
2018-Feb-20 18:29N 44°06' E 028°40'0 0.0
2018-Feb-20 18:01N 44°06' E 028°40'0 0.4
2018-Feb-20 17:30N 44°07' E 028°40'2 3.6
2018-Feb-20 17:00N 44°06' E 028°42'3 6.7
2018-Feb-20 16:30N 44°04' E 028°45'713.5
2018-Feb-20 16:01N 43°58' E 028°51'815.9
2018-Feb-20 15:31N 43°50' E 028°53'816.6
2018-Feb-20 15:01N 43°42' E 028°55'917.4
2018-Feb-20 14:31N 43°34' E 028°58'  
2018-Feb-17 02:49N 37°57' E 024°36'516.5
2018-Feb-17 02:30N 37°53' E 024°31'1118.2
2018-Feb-17 01:54N 37°47' E 024°20'1317.3
2018-Feb-17 01:08N 37°38' E 024°08'416.0
2018-Feb-17 00:51N 37°37' E 024°03'618.3
2018-Feb-17 00:30N 37°37' E 023°55'917.9
2018-Feb-17 00:00N 37°39' E 023°43'918.6
2018-Feb-16 23:30N 37°47' E 023°38'816.7
2018-Feb-16 23:00N 37°55' E 023°37'2 4.3
2018-Feb-16 22:30N 37°57' E 023°35'0 0.1
2018-Feb-16 22:00N 37°57' E 023°35'0 0.0
2018-Feb-16 21:30N 37°57' E 023°35'0 0.0
2018-Feb-16 21:00N 37°57' E 023°35'0 0.0
2018-Feb-16 20:30N 37°57' E 023°35'0 0.0
2018-Feb-16 20:00N 37°57' E 023°35'0 0.0
2018-Feb-16 19:30N 37°57' E 023°35'0 0.0
2018-Feb-16 19:00N 37°57' E 023°35'0 0.0
2018-Feb-16 18:30N 37°57' E 023°35'0 0.0
2018-Feb-16 18:00N 37°57' E 023°35'0 0.0
2018-Feb-16 17:30N 37°57' E 023°35'0 0.0
2018-Feb-16 17:00N 37°57' E 023°35'0 0.0
2018-Feb-16 16:30N 37°57' E 023°35'0 0.0
2018-Feb-16 16:00N 37°57' E 023°35'0 0.0
2018-Feb-16 15:29N 37°57' E 023°35'0 0.0
2018-Feb-16 14:59N 37°57' E 023°35'0 0.0
2018-Feb-16 14:29N 37°57' E 023°35'0 0.0
2018-Feb-16 13:59N 37°57' E 023°35'0 0.0
2018-Feb-16 13:29N 37°57' E 023°35'0 0.0
2018-Feb-16 12:59N 37°57' E 023°35'0 0.0
2018-Feb-16 12:29N 37°57' E 023°35'0 0.0
2018-Feb-16 11:59N 37°57' E 023°35'0 0.0
2018-Feb-16 11:29N 37°57' E 023°35'0 0.0
2018-Feb-16 10:59N 37°57' E 023°35'0 0.0
2018-Feb-16 10:29N 37°57' E 023°35'0 0.0
2018-Feb-16 09:59N 37°57' E 023°35'0 0.0
2018-Feb-16 09:29N 37°57' E 023°35'0 0.0
2018-Feb-16 08:59N 37°57' E 023°35'0 0.2
2018-Feb-16 08:30N 37°57' E 023°35'1 3.0
2018-Feb-16 08:00N 37°56' E 023°35'2 4.3
2018-Feb-16 07:30N 37°54' E 023°35'0 0.8
2018-Feb-16 07:00N 37°53' E 023°36'1 1.1
2018-Feb-16 06:30N 37°53' E 023°35'1 2.4
2018-Feb-16 06:00N 37°52' E 023°35'2 3.6
2018-Feb-16 05:30N 37°50' E 023°34'1 2.0
2018-Feb-16 05:00N 37°51' E 023°35'1 2.0
2018-Feb-16 04:31N 37°52' E 023°35'0 0.4
2018-Feb-16 04:00N 37°52' E 023°36'3 5.5
2018-Feb-16 03:30N 37°51' E 023°39'3 6.0
2018-Feb-16 03:00N 37°48' E 023°40'3 6.2
2018-Feb-16 02:30N 37°45' E 023°42'3 6.5
2018-Feb-16 02:00N 37°43' E 023°44'4 7.2
2018-Feb-16 01:30N 37°40' E 023°47'4 8.7
2018-Feb-16 01:00N 37°37' E 023°51'4 8.6
2018-Feb-16 00:30N 37°34' E 023°55'4 8.6
2018-Feb-16 00:00N 37°31' E 023°58'4 8.3
2018-Feb-15 23:30N 37°27' E 024°02'  
2018-Feb-11 13:40N 32°06' E 033°01'620.7
2018-Feb-11 13:22N 32°02' E 032°57'1020.3
2018-Feb-11 12:53N 31°54' E 032°49'720.0
2018-Feb-11 12:30N 31°48' E 032°43'  
Track history (hours):
 
Tides and Currents Weather Stations Pressure Air Temp Water Temp Dewpoint Dewpoint Depression Visibility Wind Speed Wind Dir Waves Ship Positions

CMA CGM Arkansas

Last reported at 2018-Feb-21 03:25 UTC. Time now 2018-Feb-21 03:48 UTC.
Position N 44°06' E 028°40'.

Length 300 m; draft 11.2 m.

Type: Ship (hazmat cat A). MMSI: 256644000.

Date/timePositionNaut miles runAvg speedWind from/ knotsBaromVisibWave heightAir tempDewpointWater temp
2018-Feb-21 03:25N 44°06' E 028°40'0 0.0
2018-Feb-21 02:58N 44°06' E 028°40'0 0.0
2018-Feb-21 02:29N 44°06' E 028°40'0 0.0
2018-Feb-21 01:59N 44°06' E 028°40'0 0.0
2018-Feb-21 01:28N 44°06' E 028°40'0 0.0
2018-Feb-21 00:58N 44°06' E 028°40'0 0.0
2018-Feb-21 00:28N 44°06' E 028°40'0 0.0
2018-Feb-20 23:59N 44°06' E 028°40'0 0.0
2018-Feb-20 23:29N 44°06' E 028°40'0 0.0
2018-Feb-20 22:58N 44°06' E 028°40'0 0.0
2018-Feb-20 22:28N 44°06' E 028°40'0 0.0
2018-Feb-20 21:59N 44°06' E 028°40'0 0.0
2018-Feb-20 21:29N 44°06' E 028°40'0 0.0
2018-Feb-20 20:59N 44°06' E 028°40'0 0.0
2018-Feb-20 20:28N 44°06' E 028°40'0 0.0
2018-Feb-20 19:59N 44°06' E 028°40'0 0.0
2018-Feb-20 19:29N 44°06' E 028°40'0 0.0
2018-Feb-20 18:59N 44°06' E 028°40'0 0.0
2018-Feb-20 18:29N 44°06' E 028°40'0 0.0
2018-Feb-20 18:01N 44°06' E 028°40'0 0.4
2018-Feb-20 17:30N 44°07' E 028°40'2 3.6
2018-Feb-20 17:00N 44°06' E 028°42'3 6.7
2018-Feb-20 16:30N 44°04' E 028°45'713.5
2018-Feb-20 16:01N 43°58' E 028°51'815.9
2018-Feb-20 15:31N 43°50' E 028°53'816.6
2018-Feb-20 15:01N 43°42' E 028°55'917.4
2018-Feb-20 14:31N 43°34' E 028°58'  
2018-Feb-17 02:49N 37°57' E 024°36'516.5
2018-Feb-17 02:30N 37°53' E 024°31'1118.2
2018-Feb-17 01:54N 37°47' E 024°20'1317.3
2018-Feb-17 01:08N 37°38' E 024°08'416.0
2018-Feb-17 00:51N 37°37' E 024°03'618.3
2018-Feb-17 00:30N 37°37' E 023°55'917.9
2018-Feb-17 00:00N 37°39' E 023°43'918.6
2018-Feb-16 23:30N 37°47' E 023°38'816.7
2018-Feb-16 23:00N 37°55' E 023°37'2 4.3
2018-Feb-16 22:30N 37°57' E 023°35'0 0.1
2018-Feb-16 22:00N 37°57' E 023°35'0 0.0
2018-Feb-16 21:30N 37°57' E 023°35'0 0.0
2018-Feb-16 21:00N 37°57' E 023°35'0 0.0
2018-Feb-16 20:30N 37°57' E 023°35'0 0.0
2018-Feb-16 20:00N 37°57' E 023°35'0 0.0
2018-Feb-16 19:30N 37°57' E 023°35'0 0.0
2018-Feb-16 19:00N 37°57' E 023°35'0 0.0
2018-Feb-16 18:30N 37°57' E 023°35'0 0.0
2018-Feb-16 18:00N 37°57' E 023°35'0 0.0
2018-Feb-16 17:30N 37°57' E 023°35'0 0.0
2018-Feb-16 17:00N 37°57' E 023°35'0 0.0
2018-Feb-16 16:30N 37°57' E 023°35'0 0.0
2018-Feb-16 16:00N 37°57' E 023°35'0 0.0
2018-Feb-16 15:29N 37°57' E 023°35'0 0.0
2018-Feb-16 14:59N 37°57' E 023°35'0 0.0
2018-Feb-16 14:29N 37°57' E 023°35'0 0.0
2018-Feb-16 13:59N 37°57' E 023°35'0 0.0
2018-Feb-16 13:29N 37°57' E 023°35'0 0.0
2018-Feb-16 12:59N 37°57' E 023°35'0 0.0
2018-Feb-16 12:29N 37°57' E 023°35'0 0.0
2018-Feb-16 11:59N 37°57' E 023°35'0 0.0
2018-Feb-16 11:29N 37°57' E 023°35'0 0.0
2018-Feb-16 10:59N 37°57' E 023°35'0 0.0
2018-Feb-16 10:29N 37°57' E 023°35'0 0.0
2018-Feb-16 09:59N 37°57' E 023°35'0 0.0
2018-Feb-16 09:29N 37°57' E 023°35'0 0.0
2018-Feb-16 08:59N 37°57' E 023°35'0 0.2
2018-Feb-16 08:30N 37°57' E 023°35'1 3.0
2018-Feb-16 08:00N 37°56' E 023°35'2 4.3
2018-Feb-16 07:30N 37°54' E 023°35'0 0.8
2018-Feb-16 07:00N 37°53' E 023°36'1 1.1
2018-Feb-16 06:30N 37°53' E 023°35'1 2.4
2018-Feb-16 06:00N 37°52' E 023°35'2 3.6
2018-Feb-16 05:30N 37°50' E 023°34'1 2.0
2018-Feb-16 05:00N 37°51' E 023°35'1 2.0
2018-Feb-16 04:31N 37°52' E 023°35'0 0.4
2018-Feb-16 04:00N 37°52' E 023°36'3 5.5
2018-Feb-16 03:30N 37°51' E 023°39'3 6.0
2018-Feb-16 03:00N 37°48' E 023°40'3 6.2
2018-Feb-16 02:30N 37°45' E 023°42'3 6.5
2018-Feb-16 02:00N 37°43' E 023°44'4 7.2
2018-Feb-16 01:30N 37°40' E 023°47'4 8.7
2018-Feb-16 01:00N 37°37' E 023°51'4 8.6
2018-Feb-16 00:30N 37°34' E 023°55'4 8.6
2018-Feb-16 00:00N 37°31' E 023°58'4 8.3
2018-Feb-15 23:30N 37°27' E 024°02'  
2018-Feb-11 13:40N 32°06' E 033°01'620.7
2018-Feb-11 13:22N 32°02' E 032°57'1020.3
2018-Feb-11 12:53N 31°54' E 032°49'720.0
2018-Feb-11 12:30N 31°48' E 032°43'  

Dump ship's entire track history